createdAt,value
2023-02-03T07:56:00.780Z,8928.5
2023-02-03T07:57:00.769Z,9370.8
2023-02-03T07:58:03.171Z,9753.6
2023-02-03T07:59:00.780Z,10136.4
2023-02-03T08:01:00.783Z,10720.0
2023-02-03T08:02:00.917Z,11011.8
2023-02-03T08:03:00.806Z,11051.1
2023-02-03T08:04:00.771Z,11090.3
2023-02-03T08:05:01.062Z,11129.6
2023-02-03T08:06:00.767Z,11155.8
2023-02-03T08:07:00.833Z,11182.0
2023-02-03T08:08:01.193Z,11471.6
2023-02-03T08:09:00.772Z,11761.2
2023-02-03T08:10:12.939Z,12286.1
2023-02-03T08:11:00.773Z,12762.1
2023-02-03T08:12:00.776Z,13238.2
2023-02-03T08:13:00.775Z,13503.8
2023-02-03T08:14:00.839Z,13769.4
2023-02-03T08:15:01.628Z,14145.3
2023-02-03T08:16:00.804Z,14397.6
2023-02-03T08:17:00.853Z,14649.9
2023-02-03T08:18:00.809Z,14904.3
2023-02-03T08:19:00.849Z,15158.8
2023-02-03T08:20:01.646Z,15413.3
2023-02-03T08:21:00.777Z,15555.6
2023-02-03T08:22:00.773Z,15697.9
2023-02-03T08:23:00.815Z,15718.5
2023-02-03T08:24:00.775Z,15739.0
2023-02-03T08:25:01.123Z,15524.3
2023-02-03T08:26:00.805Z,15428.2
2023-02-03T08:27:01.887Z,15332.1
2023-02-03T08:28:00.892Z,16526.3
2023-02-03T08:29:00.783Z,17720.5
2023-02-03T08:30:01.810Z,18914.7
2023-02-03T08:31:00.930Z,19679.7
2023-02-03T08:32:00.868Z,20444.7
2023-02-03T08:33:00.813Z,21013.2
2023-02-03T08:34:00.779Z,21581.7
2023-02-03T08:35:02.043Z,22150.1
2023-02-03T08:36:00.822Z,23456.4
2023-02-03T08:37:01.056Z,24762.7
2023-02-03T08:38:00.805Z,26624.6
2023-02-03T08:39:00.780Z,28486.5
2023-02-03T08:40:01.003Z,30348.5
2023-02-03T08:41:00.785Z,32353.5
2023-02-03T08:42:00.826Z,34358.6
2023-02-03T08:43:06.847Z,36406.7
2023-02-03T08:44:00.784Z,38454.7
2023-02-03T08:46:01.151Z,41861.3
2023-02-03T08:47:00.787Z,43841.1
2023-02-03T08:48:01.104Z,46786.0
2023-02-03T08:49:00.793Z,49730.9
2023-02-03T08:50:02.126Z,52675.9
2023-02-03T08:51:00.798Z,54827.9
2023-02-03T08:52:00.796Z,56980.0
2023-02-03T08:53:00.894Z,58423.0
2023-02-03T08:54:00.940Z,59866.0
2023-02-03T08:56:00.909Z,62490.2
2023-02-03T08:57:01.347Z,63671.4
2023-02-03T09:00:09.555Z,63526.3
2023-02-03T09:01:00.816Z,63381.3
2023-02-03T09:02:00.868Z,63236.2
2023-02-03T09:03:00.930Z,60783.9
2023-02-03T09:04:00.807Z,58331.7
2023-02-03T09:05:12.042Z,56088.2
2023-02-03T09:06:01.966Z,53844.7
2023-02-03T09:07:00.850Z,51601.3
2023-02-03T09:08:00.784Z,50677.1
2023-02-03T09:09:05.976Z,49753.0
2023-02-03T09:11:00.796Z,46400.7
2023-02-03T09:12:00.791Z,43972.5
2023-02-03T09:13:01.080Z,42014.1
2023-02-03T09:14:07.386Z,40055.8
2023-02-03T09:16:00.818Z,37630.0
2023-02-03T09:17:00.806Z,36396.3
2023-02-03T09:18:00.790Z,37159.5
2023-02-03T09:19:00.816Z,37922.8
2023-02-03T09:21:01.084Z,38475.0
2023-02-03T09:22:00.933Z,38472.7
2023-02-03T09:23:00.996Z,37551.7
2023-02-03T09:24:00.889Z,36630.7
2023-02-03T09:26:00.819Z,34853.2
2023-02-03T09:27:00.829Z,34716.5
2023-02-03T09:28:00.877Z,35699.0
2023-02-03T09:29:00.834Z,36681.5
2023-02-03T09:31:00.875Z,39276.8
2023-02-03T09:32:05.885Z,40889.5
2023-02-03T09:33:00.799Z,41508.7
2023-02-03T09:34:00.824Z,42127.8
2023-02-03T09:35:03.186Z,42746.9
2023-02-03T09:36:00.993Z,44235.6
2023-02-03T09:37:00.804Z,45724.3
2023-02-03T09:38:00.838Z,47569.4
2023-02-03T09:39:00.870Z,49414.5
2023-02-03T09:40:01.827Z,51979.5
2023-02-03T09:41:11.079Z,54001.0
2023-02-03T09:42:01.450Z,56022.5
2023-02-03T09:43:00.809Z,56998.3
2023-02-03T09:44:00.838Z,57974.1
2023-02-03T09:46:06.923Z,59337.2
2023-02-03T09:47:01.198Z,59724.5
2023-02-03T09:48:00.987Z,59525.5
2023-02-03T09:49:01.935Z,59326.6
2023-02-03T09:50:01.796Z,59127.7
2023-02-03T09:51:01.074Z,59032.4
2023-02-03T09:52:00.810Z,58937.1
2023-02-03T09:53:01.075Z,58307.5
2023-02-03T09:54:00.850Z,57677.9
2023-02-03T09:55:01.038Z,57048.3
2023-02-03T09:56:00.810Z,57591.7
2023-02-03T09:57:00.828Z,58135.1
2023-02-03T10:00:04.438Z,58135.1
2023-02-03T10:03:01.062Z,59403.9
2023-02-03T10:04:01.096Z,60672.7
2023-02-03T10:05:03.527Z,61941.5
2023-02-03T10:06:00.807Z,62793.9
2023-02-03T10:07:00.821Z,63646.2
2023-02-03T10:08:00.808Z,64275.8
2023-02-03T10:09:00.875Z,64905.4
2023-02-03T10:10:03.606Z,65535.0
2023-02-03T10:11:00.811Z,64843.1
2023-02-03T10:12:01.017Z,64151.1
2023-02-03T10:15:03.187Z,64151.1
2023-02-03T10:16:00.894Z,63735.5
2023-02-03T10:17:05.976Z,63319.8
2023-02-03T10:21:00.985Z,61889.4
2023-02-03T10:22:00.820Z,60459.0
2023-02-03T10:23:00.903Z,59854.9
2023-02-03T10:24:00.903Z,59250.7
2023-02-03T10:26:00.949Z,59338.5
2023-02-03T10:27:00.837Z,60030.5
2023-02-03T10:28:00.944Z,59387.9
2023-02-03T10:29:00.886Z,58745.4
2023-02-03T10:31:01.334Z,58518.5
2023-02-03T10:32:01.105Z,58934.2
2023-02-03T10:36:00.998Z,60364.6
2023-02-03T10:37:00.838Z,61795.0
2023-02-03T10:38:00.856Z,62399.1
2023-02-03T10:39:01.096Z,63003.3
2023-02-03T10:40:01.064Z,63607.4
2023-02-03T10:43:00.886Z,64249.9
2023-02-03T10:44:00.810Z,64892.5
2023-02-03T10:45:01.854Z,65535.0
2023-02-03T10:46:00.879Z,64668.9
2023-02-03T10:47:00.844Z,63802.7
2023-02-03T10:48:00.817Z,63564.1
2023-02-03T10:49:00.820Z,63325.4
2023-02-03T10:50:01.068Z,63086.7
2023-02-03T11:01:00.819Z,63952.9
2023-02-03T11:02:05.832Z,64819.0
2023-02-03T11:03:00.928Z,64280.3
2023-02-03T11:04:00.835Z,63741.7
2023-02-03T11:06:00.835Z,62842.9
2023-02-03T11:07:00.846Z,62482.7
2023-02-03T11:08:00.893Z,61793.4
2023-02-03T11:09:00.829Z,61104.1
2023-02-03T11:10:01.070Z,60414.7
2023-02-03T11:11:00.824Z,59226.5
2023-02-03T11:12:00.852Z,58038.3
2023-02-03T11:13:00.902Z,57432.5
2023-02-03T11:14:00.822Z,56826.6
2023-02-03T11:18:00.843Z,55632.2
2023-02-03T11:19:00.864Z,55043.7
2023-02-03T11:20:01.193Z,54455.1
2023-02-03T11:21:00.971Z,52158.7
2023-02-03T11:22:00.858Z,49862.3
2023-02-03T11:23:00.891Z,47698.1
2023-02-03T11:24:00.890Z,45533.9
2023-02-03T11:25:02.248Z,43369.7
2023-02-03T11:26:00.822Z,41551.0
2023-02-03T11:27:00.850Z,39732.3
2023-02-03T11:28:00.852Z,38112.7
2023-02-03T11:29:00.827Z,36493.2
2023-02-03T11:31:00.954Z,32415.1
2023-02-03T11:32:01.033Z,29956.6
2023-02-03T11:33:00.826Z,29849.3
2023-02-03T11:34:00.861Z,29741.9
2023-02-03T11:36:00.836Z,29852.8
2023-02-03T11:37:00.852Z,30071.0
2023-02-03T11:38:01.090Z,30604.5
2023-02-03T11:39:01.092Z,31137.9
2023-02-03T11:40:24.250Z,32317.5
2023-02-03T11:41:00.831Z,33650.5
2023-02-03T11:42:00.856Z,34983.5
2023-02-03T11:43:00.828Z,35182.8
2023-02-03T11:44:00.930Z,35382.1
2023-02-03T11:45:02.450Z,35581.3
2023-02-03T11:46:00.837Z,37171.8
2023-02-03T11:47:01.070Z,38762.3
2023-02-03T11:48:00.833Z,38483.1
2023-02-03T11:49:00.831Z,38203.9
2023-02-03T11:50:02.052Z,37924.7
2023-02-03T11:51:00.853Z,38365.4
2023-02-03T11:52:01.132Z,38806.1
2023-02-03T11:53:00.833Z,39940.7
2023-02-03T11:54:00.835Z,41075.2
2023-02-03T11:55:01.051Z,41563.6
2023-02-03T11:56:00.845Z,41589.9
2023-02-03T11:57:00.917Z,41616.3
2023-02-03T11:58:00.831Z,41994.3
2023-02-03T11:59:00.832Z,42372.3
2023-02-03T12:01:00.832Z,41523.9
2023-02-03T12:02:00.893Z,40297.6
2023-02-03T12:03:00.905Z,39910.7
2023-02-03T12:04:00.834Z,39523.7
2023-02-03T12:05:01.984Z,39136.8
2023-02-03T12:06:00.856Z,39003.1
2023-02-03T12:07:00.924Z,38869.5
2023-02-03T12:08:00.841Z,37622.8
2023-02-03T12:09:00.842Z,36376.1
2023-02-03T12:10:01.062Z,35129.5
2023-02-03T12:11:00.852Z,34151.0
2023-02-03T12:12:01.268Z,33172.5
2023-02-03T12:13:00.866Z,32106.9
2023-02-03T12:14:00.843Z,31041.2
2023-02-03T12:15:02.025Z,29975.5
2023-02-03T12:16:01.933Z,29164.5
2023-02-03T12:17:00.900Z,28353.4
2023-02-03T12:18:00.893Z,27475.9
2023-02-03T12:19:00.866Z,26598.3
2023-02-03T12:20:02.321Z,25720.8
2023-02-03T12:21:00.843Z,24842.3
2023-02-03T12:22:00.863Z,23963.9
2023-02-03T12:23:01.911Z,23297.7
2023-02-03T12:24:00.865Z,22631.6
2023-02-03T12:26:00.843Z,21815.3
2023-02-03T12:27:00.853Z,21504.1
2023-02-03T12:28:00.949Z,21459.7
2023-02-03T12:51:01.103Z,38943.0
2023-02-03T12:52:01.108Z,37489.3
2023-02-03T12:53:01.115Z,37626.3
2023-02-03T12:54:02.142Z,37708.4
2023-02-03T12:55:01.596Z,37763.2
2023-02-03T12:56:01.146Z,36343.1
2023-02-03T12:57:01.112Z,35278.1
2023-02-03T12:58:01.178Z,34463.3
2023-02-03T12:59:01.109Z,33811.5
2023-02-03T13:01:01.168Z,34242.4
2023-02-03T13:02:01.124Z,35058.3
2023-02-03T13:03:01.139Z,35926.9
2023-02-03T13:04:01.118Z,36679.7
2023-02-03T13:06:01.166Z,37609.8
2023-02-03T13:07:01.112Z,38278.9
2023-02-03T13:08:01.132Z,38392.7
2023-02-03T13:09:01.110Z,38506.6
2023-02-03T13:10:01.336Z,38620.5
2023-02-03T13:11:01.116Z,39039.1
2023-02-03T13:12:01.113Z,39457.7
2023-02-03T13:13:01.120Z,39849.7
2023-02-03T13:14:01.139Z,40241.8
2023-02-03T13:16:07.165Z,39425.8
2023-02-03T13:17:01.135Z,38217.7
2023-02-03T13:18:01.122Z,37449.5
2023-02-03T13:19:01.110Z,36681.3
2023-02-03T13:20:01.379Z,35913.1
2023-02-03T13:22:01.153Z,35265.3
2023-02-03T13:23:01.101Z,34860.3
2023-02-03T13:24:01.115Z,34780.3
2023-02-03T13:25:01.178Z,34700.2
2023-02-03T13:26:08.348Z,34565.7
2023-02-03T13:27:01.102Z,34807.5
2023-02-03T13:28:01.154Z,35078.1
2023-02-03T13:29:01.108Z,35367.1
2023-02-03T13:30:01.115Z,35656.1
2023-02-03T13:31:01.968Z,36399.6
2023-02-03T13:32:01.145Z,37616.3
2023-02-03T13:33:01.094Z,38541.1
2023-02-03T13:34:01.093Z,38868.1
2023-02-03T13:35:01.135Z,39195.0
2023-02-03T13:36:02.353Z,39780.5
2023-02-03T13:37:01.114Z,40419.1
2023-02-03T13:38:01.140Z,40581.3
2023-02-03T13:39:01.104Z,40743.5
2023-02-03T13:40:01.116Z,40905.7
2023-02-03T13:41:02.064Z,41304.0
2023-02-03T13:42:01.105Z,41702.3
2023-02-03T13:43:01.223Z,41885.5
2023-02-03T13:44:01.112Z,42068.8
2023-02-03T13:45:02.168Z,42252.1
2023-02-03T13:46:01.472Z,42140.7
2023-02-03T13:47:01.147Z,42029.3
2023-02-03T13:48:01.116Z,42866.6
2023-02-03T13:49:01.109Z,43703.9
2023-02-03T13:50:01.222Z,44541.3
2023-02-03T13:51:02.023Z,44789.8
2023-02-03T13:52:01.107Z,45038.3
2023-02-03T13:53:01.119Z,45237.8
2023-02-03T13:54:01.134Z,45437.3
2023-02-03T13:55:01.195Z,45636.7
2023-02-03T13:56:01.318Z,45401.0
2023-02-03T13:57:01.111Z,45165.3
2023-02-03T13:58:01.146Z,45568.3
2023-02-03T13:59:01.109Z,45971.3
2023-02-03T14:00:01.157Z,46374.3
2023-02-03T14:01:01.996Z,45799.8
2023-02-03T14:02:01.103Z,45225.3
2023-02-03T14:03:01.101Z,44352.6
2023-02-03T14:04:01.330Z,43479.9
2023-02-03T14:05:01.273Z,42607.1
2023-02-03T14:06:02.039Z,41603.9
2023-02-03T14:07:01.105Z,40600.6
2023-02-03T14:08:01.101Z,39627.7
2023-02-03T14:09:01.107Z,38654.9
2023-02-03T14:10:02.218Z,37682.0
2023-02-03T14:11:01.329Z,36648.2
2023-02-03T14:12:01.106Z,35614.4
2023-02-03T14:13:01.104Z,33783.4
2023-02-03T14:14:01.111Z,31952.4
2023-02-03T14:15:01.721Z,30121.4
2023-02-03T14:16:07.906Z,29342.1
2023-02-03T14:17:01.169Z,28562.9
2023-02-03T14:18:01.110Z,27558.9
2023-02-03T14:19:01.108Z,26555.0
2023-02-03T14:20:01.149Z,25551.1
2023-02-03T14:21:01.330Z,24958.7
2023-02-03T14:22:01.266Z,24366.4
2023-02-03T14:23:01.106Z,24114.8
2023-02-03T14:24:01.116Z,23863.2
2023-02-03T14:25:01.542Z,23611.6
2023-02-03T14:26:03.769Z,23525.5
2023-02-03T14:27:01.126Z,23439.5
2023-02-03T14:28:02.395Z,23436.7
2023-02-03T14:29:01.108Z,23433.9
2023-02-03T14:30:01.244Z,23431.1
2023-02-03T14:31:01.545Z,23124.5
2023-02-03T14:32:01.160Z,22818.0
2023-02-03T14:33:01.115Z,22162.8
2023-02-03T14:34:01.821Z,21507.6
2023-02-03T14:35:01.248Z,20852.4
2023-02-03T14:36:01.648Z,20092.8
2023-02-03T14:37:01.114Z,19333.2
2023-02-03T14:38:01.114Z,18358.7
2023-02-03T14:39:01.118Z,17384.1
2023-02-03T14:40:01.138Z,16409.6
2023-02-03T14:41:07.891Z,15442.3
2023-02-03T14:42:01.144Z,14474.9
2023-02-03T14:43:09.935Z,13788.0
2023-02-03T14:44:01.212Z,13101.1
2023-02-03T14:45:01.160Z,12414.1
2023-02-03T14:46:01.354Z,11686.4
2023-02-03T14:47:01.112Z,10958.7
2023-02-03T14:48:01.120Z,10452.8
2023-02-03T14:50:01.100Z,9946.9
2023-02-03T14:51:04.047Z,9509.2
2023-02-03T14:52:01.101Z,9225.0
2023-02-03T14:53:01.101Z,8764.7
2023-02-03T14:54:01.110Z,8430.8
2023-02-03T14:55:01.107Z,8096.9
2023-02-03T14:56:01.332Z,7891.8
2023-02-03T14:57:01.124Z,7828.5
2023-02-03T14:58:01.112Z,7644.9
2023-02-03T14:59:01.111Z,7442.2
2023-02-03T15:00:01.133Z,7239.5
2023-02-03T15:01:01.394Z,6986.3
2023-02-03T15:02:01.104Z,6843.5
2023-02-03T15:03:01.104Z,6718.1
2023-02-03T15:04:01.105Z,6585.5
2023-02-03T15:05:01.148Z,6453.0
2023-02-03T15:06:01.960Z,6373.2
2023-02-03T15:07:01.107Z,6293.4
2023-02-03T15:08:01.103Z,6292.9
2023-02-03T15:09:01.107Z,6292.3
2023-02-03T15:10:01.154Z,6291.8
2023-02-03T15:11:01.858Z,6303.5
2023-02-03T15:12:01.123Z,6315.1
2023-02-03T15:13:01.125Z,6410.6
2023-02-03T15:14:01.107Z,6506.1
2023-02-03T15:15:06.113Z,6601.5
2023-02-03T15:16:02.209Z,6895.8
2023-02-03T15:17:01.118Z,7190.1
2023-02-03T15:18:01.134Z,7286.6
2023-02-03T15:19:01.110Z,7383.1
2023-02-03T15:20:01.149Z,7479.7
2023-02-03T15:21:02.830Z,7286.7
2023-02-03T15:22:01.105Z,7093.7
2023-02-03T15:23:01.110Z,7131.4
2023-02-03T15:24:01.366Z,7169.1
2023-02-03T15:25:01.200Z,7206.9
2023-02-03T15:26:02.924Z,7011.5
2023-02-03T15:27:01.102Z,6816.2
2023-02-03T15:28:01.163Z,6711.7
2023-02-03T15:29:01.138Z,6607.3
2023-02-03T15:30:01.139Z,6502.8
2023-02-03T15:31:03.610Z,6300.7
2023-02-03T15:32:01.197Z,6098.7
2023-02-03T15:33:01.113Z,6220.9
2023-02-03T15:34:01.108Z,6343.1
2023-02-03T15:35:01.166Z,6465.3
2023-02-03T15:36:02.453Z,6673.8
2023-02-03T15:37:01.111Z,6882.3
2023-02-03T15:38:01.105Z,6794.8
2023-02-03T15:39:01.110Z,6707.3
2023-02-03T15:40:01.146Z,6619.7
2023-02-03T15:41:01.934Z,6521.9
2023-02-03T15:42:01.114Z,6424.0
2023-02-03T15:43:01.116Z,6208.4
2023-02-03T15:44:01.117Z,5992.8
2023-02-03T15:45:01.170Z,5777.2
2023-02-03T15:46:02.538Z,5478.8
2023-02-03T15:47:01.252Z,5180.4
2023-02-03T15:48:01.107Z,4810.1
2023-02-03T15:49:01.119Z,4439.7
2023-02-03T15:50:01.181Z,4069.4
2023-02-03T15:51:01.339Z,3727.0
2023-02-03T15:52:01.121Z,3384.6
2023-02-03T15:53:01.210Z,3180.5
2023-02-03T15:54:01.125Z,2976.3
2023-02-03T15:55:01.157Z,2772.2
2023-02-03T15:56:02.323Z,2650.5
2023-02-03T15:57:01.183Z,2528.9
2023-02-03T15:58:01.111Z,2434.9
2023-02-03T15:59:01.122Z,2341.0
2023-02-03T16:00:01.134Z,2247.1
2023-02-03T16:01:01.926Z,2151.9
2023-02-03T16:02:01.224Z,2056.7
2023-02-03T16:03:01.202Z,1886.5
2023-02-03T16:04:01.125Z,1716.3
2023-02-03T16:05:01.176Z,1546.1
2023-02-03T16:07:01.303Z,1432.5
2023-02-03T16:08:01.113Z,1336.4
2023-02-03T16:09:06.176Z,1264.1
2023-02-03T16:10:01.270Z,1191.9
2023-02-03T16:11:01.108Z,1103.8
2023-02-03T16:12:01.306Z,1035.6
2023-02-03T16:13:01.106Z,953.9
2023-02-03T16:14:01.105Z,907.7
2023-02-03T16:15:01.097Z,861.6
2023-02-03T16:16:04.038Z,798.8
2023-02-03T16:17:06.506Z,769.4
2023-02-03T16:18:01.133Z,729.7
2023-02-03T16:19:01.176Z,693.1
2023-02-03T16:20:01.108Z,656.5
2023-02-03T16:21:01.265Z,613.7
2023-02-03T16:22:06.599Z,568.7
2023-02-03T16:23:01.106Z,503.0
2023-02-03T16:24:01.124Z,437.3
2023-02-03T16:25:01.171Z,371.7
2023-02-03T16:26:02.094Z,320.1
2023-02-03T16:27:01.336Z,268.6
2023-02-03T16:28:01.295Z,228.9
2023-02-03T16:29:01.177Z,189.3
2023-02-03T16:30:01.173Z,149.6
2023-02-03T16:31:01.283Z,125.7
2023-02-03T16:32:01.402Z,101.9
2023-02-03T16:33:01.106Z,87.7
2023-02-03T16:34:01.168Z,73.5
2023-02-03T16:35:01.102Z,59.3
2023-02-03T16:36:01.141Z,51.0
2023-02-03T16:37:02.079Z,42.7
2023-02-03T16:38:01.107Z,37.4
2023-02-03T16:39:01.234Z,32.1
2023-02-03T16:40:01.143Z,26.7
2023-02-03T16:41:02.005Z,23.0
2023-02-03T16:42:01.318Z,19.3
2023-02-03T16:43:01.175Z,17.0
2023-02-03T16:44:01.106Z,14.7
2023-02-03T16:45:01.178Z,12.5
2023-02-03T16:46:01.217Z,11.0
2023-02-03T16:47:02.505Z,9.5
2023-02-03T16:48:01.408Z,8.6
2023-02-03T16:49:01.107Z,7.7
2023-02-03T16:50:01.106Z,6.7
2023-02-03T16:51:01.217Z,6.0
2023-02-03T16:52:01.318Z,5.3
2023-02-03T16:53:01.109Z,4.7
2023-02-03T16:54:01.105Z,4.2
2023-02-03T16:55:01.284Z,3.7
2023-02-03T16:56:02.044Z,3.2
2023-02-03T16:57:02.170Z,2.7
2023-02-03T16:58:01.117Z,2.5
2023-02-03T16:59:01.115Z,2.2
2023-02-03T17:00:01.167Z,1.9
2023-02-03T17:01:01.293Z,1.7
2023-02-03T17:02:01.337Z,1.4
2023-02-03T17:03:01.115Z,1.2
2023-02-03T17:04:01.151Z,1.0
2023-02-03T17:05:06.182Z,0.8
2023-02-03T17:06:01.157Z,0.7
2023-02-03T17:07:01.327Z,0.5
2023-02-03T17:09:01.219Z,0.4
2023-02-03T17:10:01.121Z,0.3
2023-02-03T17:12:01.472Z,0.2
2023-02-03T17:13:01.132Z,0.1
2023-02-03T20:01:01.134Z,0.1
2023-02-03T20:03:02.144Z,0.2
2023-02-03T20:04:02.119Z,0.3
2023-02-03T20:06:01.372Z,0.4
2023-02-03T20:07:01.742Z,0.5
2023-02-03T20:09:01.691Z,0.6
2023-02-03T20:10:01.375Z,0.7
2023-02-03T20:12:01.458Z,0.8
2023-02-03T20:13:01.139Z,0.9
2023-02-03T20:15:01.344Z,1.0
2023-02-03T20:30:01.330Z,1.0
2023-02-03T20:45:01.417Z,1.0
2023-02-03T21:00:04.424Z,1.0
2023-02-03T21:06:02.599Z,0.9
2023-02-03T21:08:01.382Z,0.8
2023-02-03T21:15:01.411Z,0.8
2023-02-03T21:22:07.804Z,0.9
2023-02-03T21:24:01.474Z,1.0
2023-02-03T21:30:02.148Z,1.0
2023-02-03T21:45:01.231Z,1.0
2023-02-03T22:00:04.368Z,1.0
2023-02-03T22:14:01.453Z,0.9
2023-02-03T22:15:01.119Z,0.9
2023-02-03T22:24:01.214Z,0.8
2023-02-03T22:25:01.123Z,0.7
2023-02-03T22:30:02.643Z,0.7
2023-02-03T22:32:01.304Z,0.6
2023-02-03T22:33:01.111Z,0.5
2023-02-03T22:35:01.372Z,0.4
2023-02-03T22:36:01.105Z,0.3
2023-02-03T22:38:01.103Z,0.2
2023-02-03T22:39:01.362Z,0.1
2023-02-03T23:04:01.560Z,0.1
2023-02-03T23:06:01.380Z,0.2
2023-02-03T23:07:01.334Z,0.3
2023-02-03T23:09:01.127Z,0.4
2023-02-03T23:10:01.100Z,0.5
2023-02-03T23:12:02.528Z,0.6
2023-02-03T23:13:01.119Z,0.7
2023-02-03T23:15:01.441Z,0.7
2023-02-03T23:17:01.393Z,0.8
2023-02-03T23:18:01.102Z,0.9
2023-02-03T23:30:01.162Z,1.0
2023-02-03T23:45:01.282Z,1.0
